This is the latest recevied weather packets stored in our database for station/object R1ZCU-14. If no packets are shown the sender has not sent any weather packets the latest 1 day(s).
| Time | Temp. | Humidity | Pressure | Rain* | Wind** | Luminosity | Snow |
|---|---|---|---|---|---|---|---|
| 1778060444 | 6.67° C | 47% | 999.1 hPa | - | - | - | - |
| 1778059243 | 6.67° C | 47% | 999 hPa | - | - | - | - |
| 1778058642 | 8.89° C | 38% | 998.8 hPa | - | - | - | - |
| 1778058117 | 15.56° C | 25% | 998.4 hPa | - | - | - | - |
| 1778058042 | 16.67° C | 23% | 998.3 hPa | - | - | - | - |
| 1778057585 | 18.33° C | 20% | 998 hPa | - | - | - | - |
| 1778053982 | 13.89° C | 23% | 996.8 hPa | - | - | - | - |
| 1778053381 | 11.67° C | 28% | 997.4 hPa | - | - | - | - |
| 1778052781 | 13.89° C | 24% | 996.8 hPa | - | - | - | - |
| 1778052180 | 7.78° C | 40% | 997 hPa | - | - | - | - |
| 1778051580 | 13.89° C | 26% | 997.1 hPa | - | - | - | - |
| 1778050379 | 12.78° C | 28% | 996.4 hPa | - | - | - | - |
| 1778049178 | 8.33° C | 37% | 997.1 hPa | - | - | - | - |
| 1778048577 | 5.56° C | 52% | 996.9 hPa | - | - | - | - |
| 1778047977 | 6.11° C | 53% | 996.8 hPa | - | - | - | - |
| 1778047376 | 6.67° C | 53% | 996.7 hPa | - | - | - | - |
| 1778046776 | 5° C | 64% | 996.7 hPa | - | - | - | - |
| 1778045575 | 3.33° C | 77% | 996.8 hPa | - | - | - | - |
| 1778044974 | 3.33° C | 77% | 996.8 hPa | - | - | - | - |
| 1778044374 | 3.33° C | 75% | 996.6 hPa | - | - | - | - |
| 1778043773 | 3.33° C | 72% | 996.7 hPa | - | - | - | - |
| 1778043173 | 3.33° C | 72% | 996.5 hPa | - | - | - | - |
| 1778041972 | 3.33° C | 71% | 996.3 hPa | - | - | - | - |
| 1778041371 | 3.89° C | 70% | 996.2 hPa | - | - | - | - |
| 1778040771 | 5.56° C | 60% | 996 hPa | - | - | - | - |
* Rain since midnight (hover to see other rain measurements)
** Current wind speed in m/s (hover to see current wind gust speed)